Time;durP1;ratioP1;P1;durP2;ratioP2;P2;SDS_P1;SDS_P2;PMS_P1;PMS_P2;Temp;Humidity;BMP_temperature;BMP_pressure;BME280_temperature;BME280_humidity;BME280_pressure;Samples;Min_cycle;Max_cycle;Signal;HPM_P1;HPM_P2
2023/09/09 00:00:46;;;;;;;;;;;21.80;91.00;;;;;;5059506;28;19913;-61
2023/09/09 00:03:12;;;;;;;;;;;21.80;91.00;;;;;;5037047;28;20303;-68
2023/09/09 00:05:37;;;;;;;;;;;21.80;91.00;;;;;;5047411;28;19917;-70
2023/09/09 00:08:03;;;;;;;;;;;21.90;91.00;;;;;;5068642;28;19909;-69
2023/09/09 00:10:29;;;;;;;;;;;21.80;91.00;;;;;;5068737;28;19955;-68
2023/09/09 00:12:56;;;;;;;;;;;21.80;91.00;;;;;;5056178;28;19969;-68
2023/09/09 00:15:22;;;;;;;;;;;21.80;91.10;;;;;;5039168;28;19909;-68
2023/09/09 00:17:47;;;;;;;;;;;21.80;91.10;;;;;;5056615;28;20283;-67
2023/09/09 00:20:14;;;;;;;;;;;21.90;91.20;;;;;;5059539;28;19916;-68
2023/09/09 00:22:40;;;;;;;;;;;21.90;91.10;;;;;;5063369;28;19963;-67
2023/09/09 00:25:06;;;;;;;;;;;21.90;91.20;;;;;;5070245;28;19915;-66
2023/09/09 00:27:31;;;;;;;;;;;21.90;91.20;;;;;;5076788;28;19904;-66
2023/09/09 00:29:57;;;;;;;;;;;21.90;91.10;;;;;;5056035;28;19916;-68
2023/09/09 00:32:22;;;;;;;;;;;21.90;91.10;;;;;;5055968;28;19904;-62
2023/09/09 00:34:48;;;;;;;;;;;21.90;91.10;;;;;;5055039;28;19944;-66
2023/09/09 00:37:13;;;;;;;;;;;21.90;91.10;;;;;;5056353;28;19911;-68
2023/09/09 00:39:39;;;;;;;;;;;21.90;91.10;;;;;;5056773;28;19909;-67
2023/09/09 00:42:04;;;;;;;;;;;21.90;91.10;;;;;;5056392;28;20298;-67
2023/09/09 00:44:30;;;;;;;;;;;21.90;91.10;;;;;;5056728;28;19916;-68
2023/09/09 00:46:57;;;;;;;;;;;21.90;91.10;;;;;;5056150;28;19917;-68
2023/09/09 00:49:23;;;;;;;;;;;21.90;91.10;;;;;;5056197;28;20355;-65
2023/09/09 00:51:48;;;;;;;;;;;21.90;91.10;;;;;;5056349;28;19927;-67
2023/09/09 00:54:14;;;;;;;;;;;21.90;91.10;;;;;;5056127;28;19911;-67
2023/09/09 00:56:40;;;;;;;;;;;21.90;91.10;;;;;;5062232;28;20252;-66
2023/09/09 00:59:06;;;;;;;;;;;21.90;91.10;;;;;;5074726;28;20363;-67
2023/09/09 01:01:32;;;;;;;;;;;21.90;91.10;;;;;;5066682;28;19920;-66
2023/09/09 01:03:58;;;;;;;;;;;21.90;91.00;;;;;;5068081;28;19915;-65
2023/09/09 01:06:24;;;;;;;;;;;21.90;91.00;;;;;;5074441;28;19908;-66
2023/09/09 01:08:49;;;;;;;;;;;21.90;91.00;;;;;;5072388;28;19994;-65
2023/09/09 01:11:15;;;;;;;;;;;21.90;91.00;;;;;;5060111;28;20007;-65
2023/09/09 01:13:40;;;;;;;;;;;21.90;91.00;;;;;;5071918;28;19940;-66
2023/09/09 01:16:06;;;;;;;;;;;21.90;91.00;;;;;;5074500;28;19908;-67
2023/09/09 01:18:34;;;;;;;;;;;21.90;91.00;;;;;;5062163;28;19909;-67
2023/09/09 01:21:04;;;;;;;;;;;21.90;91.00;;;;;;5069025;28;19917;-67
2023/09/09 01:23:30;;;;;;;;;;;21.90;91.00;;;;;;5067057;28;19978;-66
2023/09/09 01:25:55;;;;;;;;;;;21.90;91.00;;;;;;5074396;28;19908;-67
2023/09/09 01:28:22;;;;;;;;;;;21.90;91.00;;;;;;5069435;28;19916;-66
2023/09/09 01:30:50;;;;;;;;;;;21.90;91.00;;;;;;5072581;28;19912;-67
2023/09/09 01:33:16;;;;;;;;;;;21.90;91.00;;;;;;5061777;28;20402;-67
2023/09/09 01:35:41;;;;;;;;;;;21.80;91.00;;;;;;5074388;28;19912;-67
2023/09/09 01:38:06;;;;;;;;;;;21.80;91.00;;;;;;5072117;28;19961;-67
2023/09/09 01:40:32;;;;;;;;;;;21.80;91.20;;;;;;5073946;28;19913;-66
2023/09/09 01:42:57;;;;;;;;;;;21.80;91.00;;;;;;5073339;28;19963;-67
2023/09/09 01:45:23;;;;;;;;;;;21.80;91.00;;;;;;5040772;28;19951;-66
2023/09/09 01:47:48;;;;;;;;;;;21.80;91.00;;;;;;5067141;28;20080;-67
2023/09/09 01:50:14;;;;;;;;;;;21.80;91.00;;;;;;5054862;28;19909;-67
2023/09/09 01:52:39;;;;;;;;;;;21.90;91.00;;;;;;5055177;28;20401;-66
2023/09/09 01:55:05;;;;;;;;;;;21.80;91.00;;;;;;5055090;28;20228;-66
2023/09/09 01:57:30;;;;;;;;;;;21.80;91.00;;;;;;5055043;28;19911;-66
2023/09/09 01:59:57;;;;;;;;;;;21.80;91.00;;;;;;5054654;28;19908;-65
2023/09/09 02:02:22;;;;;;;;;;;21.80;91.00;;;;;;5054897;28;20007;-66
2023/09/09 02:04:48;;;;;;;;;;;21.80;91.00;;;;;;5054685;28;20356;-66
2023/09/09 02:07:13;;;;;;;;;;;21.80;91.00;;;;;;5044671;28;19912;-66
2023/09/09 02:09:39;;;;;;;;;;;21.80;91.00;;;;;;5054826;28;20302;-66
2023/09/09 02:12:05;;;;;;;;;;;21.80;90.90;;;;;;5054510;28;19955;-67
2023/09/09 02:14:30;;;;;;;;;;;21.80;90.90;;;;;;5055050;28;20259;-67
2023/09/09 02:16:56;;;;;;;;;;;21.80;90.90;;;;;;5054625;28;19927;-67
2023/09/09 02:19:21;;;;;;;;;;;21.80;90.90;;;;;;5054320;28;20364;-67
2023/09/09 02:21:47;;;;;;;;;;;21.90;90.90;;;;;;5054277;28;19995;-67
2023/09/09 02:24:12;;;;;;;;;;;21.80;90.90;;;;;;5044784;28;19905;-67
2023/09/09 02:26:38;;;;;;;;;;;21.80;90.90;;;;;;5034655;28;20340;-67
2023/09/09 02:29:03;;;;;;;;;;;21.90;90.90;;;;;;5034639;28;19912;-67
2023/09/09 02:31:29;;;;;;;;;;;21.90;90.90;;;;;;5034335;28;19992;-67
2023/09/09 02:33:54;;;;;;;;;;;21.80;90.90;;;;;;5034284;28;19944;-67
2023/09/09 02:36:20;;;;;;;;;;;21.80;91.10;;;;;;5034536;28;20255;-67
2023/09/09 02:38:45;;;;;;;;;;;21.80;90.90;;;;;;5034452;28;20374;-67
2023/09/09 02:41:11;;;;;;;;;;;21.80;90.80;;;;;;5034459;28;19913;-67
2023/09/09 02:43:36;;;;;;;;;;;21.80;90.90;;;;;;5034265;28;19909;-67
2023/09/09 02:46:02;;;;;;;;;;;21.80;90.80;;;;;;5053093;28;19946;-67
2023/09/09 02:48:28;;;;;;;;;;;21.80;90.80;;;;;;5071798;28;20254;-66
2023/09/09 02:50:53;;;;;;;;;;;21.80;90.80;;;;;;5074042;28;19954;-67
2023/09/09 02:53:19;;;;;;;;;;;21.80;90.90;;;;;;5039647;28;19911;-67
2023/09/09 02:55:44;;;;;;;;;;;21.80;90.90;;;;;;5074203;28;20271;-67
2023/09/09 02:58:12;;;;;;;;;;;21.80;90.80;;;;;;5036762;28;19916;-67
2023/09/09 03:00:38;;;;;;;;;;;21.80;90.90;;;;;;5034114;28;20421;-67
2023/09/09 03:03:04;;;;;;;;;;;21.80;90.80;;;;;;5033935;28;20028;-67
2023/09/09 03:05:29;;;;;;;;;;;21.80;90.80;;;;;;5033915;28;19905;-66
2023/09/09 03:07:57;;;;;;;;;;;21.80;90.80;;;;;;5034173;28;19955;-67
2023/09/09 03:10:22;;;;;;;;;;;21.80;90.80;;;;;;5034163;28;19912;-66
2023/09/09 03:12:48;;;;;;;;;;;21.80;90.80;;;;;;5034108;28;20344;-67
2023/09/09 03:15:13;;;;;;;;;;;21.80;90.80;;;;;;5034547;28;19955;-67
2023/09/09 03:17:39;;;;;;;;;;;21.80;90.80;;;;;;5033762;28;19905;-67
2023/09/09 03:20:05;;;;;;;;;;;21.80;90.80;;;;;;5033990;28;19909;-67
2023/09/09 03:22:31;;;;;;;;;;;21.80;90.80;;;;;;5041473;28;20275;-67
2023/09/09 03:24:56;;;;;;;;;;;21.80;90.80;;;;;;5047833;28;19909;-67
2023/09/09 03:27:22;;;;;;;;;;;21.80;91.00;;;;;;5037714;28;19948;-64
2023/09/09 03:29:47;;;;;;;;;;;21.80;90.80;;;;;;5038798;28;19955;-67
2023/09/09 03:32:13;;;;;;;;;;;21.80;90.80;;;;;;5037567;28;20379;-67
2023/09/09 03:34:39;;;;;;;;;;;21.80;90.80;;;;;;5037910;28;19905;-67
2023/09/09 03:37:04;;;;;;;;;;;21.80;90.80;;;;;;5038022;28;19909;-67
2023/09/09 03:39:30;;;;;;;;;;;21.80;90.80;;;;;;5035812;28;19946;-67
2023/09/09 03:41:55;;;;;;;;;;;21.80;90.80;;;;;;5076196;28;19916;-67
2023/09/09 03:44:21;;;;;;;;;;;21.80;90.80;;;;;;5073001;28;20343;-67
2023/09/09 03:46:46;;;;;;;;;;;21.80;90.80;;;;;;5057199;28;19917;-67
2023/09/09 03:49:12;;;;;;;;;;;21.80;90.80;;;;;;5058312;28;19909;-67
2023/09/09 03:51:37;;;;;;;;;;;21.80;90.80;;;;;;5057584;28;19998;-67
2023/09/09 03:54:03;;;;;;;;;;;21.80;90.80;;;;;;5057867;28;19904;-67
2023/09/09 03:56:28;;;;;;;;;;;21.80;90.80;;;;;;5057342;28;19908;-67
2023/09/09 03:58:54;;;;;;;;;;;21.80;90.80;;;;;;5057258;28;19911;-67
2023/09/09 04:01:19;;;;;;;;;;;21.80;90.80;;;;;;5057468;28;20270;-68
2023/09/09 04:03:44;;;;;;;;;;;21.80;90.80;;;;;;5057059;28;19923;-67
2023/09/09 04:06:11;;;;;;;;;;;21.80;90.80;;;;;;5067051;28;19915;-67
2023/09/09 04:08:37;;;;;;;;;;;21.80;90.80;;;;;;5077145;28;19905;-68
2023/09/09 04:11:03;;;;;;;;;;;21.80;90.80;;;;;;5077122;28;19911;-67
2023/09/09 04:13:28;;;;;;;;;;;21.80;90.80;;;;;;5076904;28;20339;-67
2023/09/09 04:15:58;;;;;;;;;;;21.80;90.80;;;;;;5077149;28;19912;-67
2023/09/09 04:18:24;;;;;;;;;;;21.80;90.80;;;;;;5076664;28;19904;-66
2023/09/09 04:20:49;;;;;;;;;;;21.80;90.80;;;;;;5076739;28;19908;-67
2023/09/09 04:23:15;;;;;;;;;;;21.80;90.80;;;;;;5076188;28;20373;-67
2023/09/09 04:25:41;;;;;;;;;;;21.80;90.80;;;;;;5076907;28;19905;-67
2023/09/09 04:28:09;;;;;;;;;;;21.80;90.80;;;;;;5076702;28;19905;-67
2023/09/09 04:30:36;;;;;;;;;;;21.80;90.80;;;;;;5076980;28;19904;-67
2023/09/09 04:33:02;;;;;;;;;;;21.80;90.80;;;;;;5072117;28;19912;-66
2023/09/09 04:35:27;;;;;;;;;;;21.80;90.80;;;;;;5056877;28;19995;-67
2023/09/09 04:37:53;;;;;;;;;;;21.80;90.80;;;;;;5056713;28;19951;-67
2023/09/09 04:40:20;;;;;;;;;;;21.80;90.80;;;;;;5055494;28;19970;-66
2023/09/09 04:42:45;;;;;;;;;;;21.80;90.80;;;;;;5052568;28;20434;-67
2023/09/09 04:45:11;;;;;;;;;;;21.80;90.80;;;;;;5056396;28;19952;-67
2023/09/09 04:47:36;;;;;;;;;;;21.80;90.80;;;;;;5066273;28;20259;-67
2023/09/09 04:50:03;;;;;;;;;;;21.70;90.80;;;;;;5057144;28;20023;-66
2023/09/09 04:52:28;;;;;;;;;;;21.80;90.80;;;;;;5042422;28;19916;-68
2023/09/09 04:54:55;;;;;;;;;;;21.70;90.80;;;;;;5061690;28;21574;-67
2023/09/09 04:57:21;;;;;;;;;;;21.70;90.80;;;;;;5036350;28;19959;-67
2023/09/09 04:59:46;;;;;;;;;;;21.80;90.80;;;;;;5064563;28;19999;-67
2023/09/09 05:02:13;;;;;;;;;;;21.80;90.80;;;;;;5058499;28;19908;-67
2023/09/09 05:04:39;;;;;;;;;;;21.80;90.80;;;;;;5075989;28;20307;-67
2023/09/09 05:07:04;;;;;;;;;;;21.70;90.80;;;;;;5076551;28;20216;-67
2023/09/09 05:09:30;;;;;;;;;;;21.70;90.80;;;;;;5075978;28;19916;-62
2023/09/09 05:11:55;;;;;;;;;;;21.70;90.80;;;;;;5061751;28;19959;-66
2023/09/09 05:14:21;;;;;;;;;;;21.70;90.80;;;;;;5045175;28;20334;-67
2023/09/09 05:16:46;;;;;;;;;;;21.70;90.80;;;;;;5035831;28;19905;-67
2023/09/09 05:19:12;;;;;;;;;;;21.70;90.80;;;;;;5035694;28;19905;-67
2023/09/09 05:21:37;;;;;;;;;;;21.70;90.80;;;;;;5035740;28;19917;-67
2023/09/09 05:24:03;;;;;;;;;;;21.70;90.80;;;;;;5035940;28;20042;-66
2023/09/09 05:26:28;;;;;;;;;;;21.70;90.80;;;;;;5035797;28;19905;-67
2023/09/09 05:28:54;;;;;;;;;;;21.70;90.90;;;;;;5035634;28;19967;-67
2023/09/09 05:31:19;;;;;;;;;;;21.80;90.90;;;;;;5036211;28;19972;-67
2023/09/09 05:33:45;;;;;;;;;;;21.70;90.90;;;;;;5035358;28;19944;-67
2023/09/09 05:36:10;;;;;;;;;;;21.70;90.90;;;;;;5035310;28;20236;-67
2023/09/09 05:38:36;;;;;;;;;;;21.80;90.90;;;;;;5035315;28;19999;-67
2023/09/09 05:41:02;;;;;;;;;;;21.70;90.90;;;;;;5035555;28;20259;-65
2023/09/09 05:43:27;;;;;;;;;;;21.70;90.90;;;;;;5035342;28;19909;-67
2023/09/09 05:45:55;;;;;;;;;;;21.70;91.00;;;;;;5035556;28;19911;-67
2023/09/09 05:48:20;;;;;;;;;;;21.80;91.00;;;;;;5049120;28;20359;-68
2023/09/09 05:50:46;;;;;;;;;;;21.70;91.00;;;;;;5055238;28;19916;-67
2023/09/09 05:53:11;;;;;;;;;;;21.70;91.00;;;;;;5055221;28;19905;-67
2023/09/09 05:55:37;;;;;;;;;;;21.80;91.00;;;;;;5054275;28;19991;-67
2023/09/09 05:58:02;;;;;;;;;;;21.70;91.00;;;;;;5054842;28;19909;-67
2023/09/09 06:00:28;;;;;;;;;;;21.70;91.00;;;;;;5055211;28;20358;-68
2023/09/09 06:02:53;;;;;;;;;;;21.70;91.00;;;;;;5055347;28;19909;-67
2023/09/09 06:05:19;;;;;;;;;;;21.70;91.00;;;;;;5055254;28;19904;-68
2023/09/09 06:07:44;;;;;;;;;;;21.70;91.00;;;;;;5055003;28;19905;-68
2023/09/09 06:10:10;;;;;;;;;;;21.70;91.00;;;;;;5054929;28;20008;-68
2023/09/09 06:12:35;;;;;;;;;;;21.70;91.00;;;;;;5054851;28;20351;-68
2023/09/09 06:15:01;;;;;;;;;;;21.70;91.00;;;;;;5054617;28;20322;-68
2023/09/09 06:17:26;;;;;;;;;;;21.70;91.00;;;;;;5054585;28;19962;-62
2023/09/09 06:19:51;;;;;;;;;;;21.70;91.00;;;;;;5054416;28;19915;-67
2023/09/09 06:22:17;;;;;;;;;;;21.70;91.00;;;;;;5054941;28;19909;-68
2023/09/09 06:24:43;;;;;;;;;;;21.70;91.00;;;;;;5054737;28;20306;-68
2023/09/09 06:27:08;;;;;;;;;;;21.70;91.00;;;;;;5055025;28;19909;-68
2023/09/09 06:29:34;;;;;;;;;;;21.70;91.00;;;;;;5054596;28;19912;-68
2023/09/09 06:31:59;;;;;;;;;;;21.70;91.00;;;;;;5054224;28;19912;-67
2023/09/09 06:34:25;;;;;;;;;;;21.70;91.00;;;;;;5054268;28;19912;-68
2023/09/09 06:36:51;;;;;;;;;;;21.70;91.00;;;;;;5054218;28;19999;-68
2023/09/09 06:39:16;;;;;;;;;;;21.70;91.00;;;;;;5037075;28;19908;-68
2023/09/09 06:41:41;;;;;;;;;;;21.70;91.00;;;;;;5036363;28;19913;-68
2023/09/09 06:44:07;;;;;;;;;;;21.70;91.00;;;;;;5054077;28;20293;-68
2023/09/09 06:46:32;;;;;;;;;;;21.70;91.00;;;;;;5037131;28;19905;-66
2023/09/09 06:48:58;;;;;;;;;;;21.70;91.00;;;;;;5074260;28;19904;-67
2023/09/09 06:51:24;;;;;;;;;;;21.70;91.00;;;;;;5074256;28;19950;-68
2023/09/09 06:53:49;;;;;;;;;;;21.70;91.00;;;;;;5073756;28;19928;-68
2023/09/09 06:56:15;;;;;;;;;;;21.70;91.00;;;;;;5082390;28;19976;-68
2023/09/09 06:58:40;;;;;;;;;;;21.70;91.00;;;;;;5094235;28;19908;-67
2023/09/09 07:01:06;;;;;;;;;;;21.70;91.10;;;;;;5094242;28;19908;-67
2023/09/09 07:03:31;;;;;;;;;;;21.70;91.10;;;;;;5094284;28;20330;-67
2023/09/09 07:06:00;;;;;;;;;;;21.70;91.10;;;;;;5094176;28;20029;-67
2023/09/09 07:08:26;;;;;;;;;;;21.70;91.10;;;;;;5093587;28;19911;-67
2023/09/09 07:10:52;;;;;;;;;;;21.70;91.10;;;;;;5093824;28;19912;-67
2023/09/09 07:13:17;;;;;;;;;;;21.70;91.10;;;;;;5092968;28;20013;-67
2023/09/09 07:15:43;;;;;;;;;;;21.70;91.30;;;;;;5090319;28;19939;-67
2023/09/09 07:18:08;;;;;;;;;;;21.70;91.10;;;;;;5082521;28;19909;-67
2023/09/09 07:20:34;;;;;;;;;;;21.70;91.10;;;;;;5073367;28;19909;-66
2023/09/09 07:22:59;;;;;;;;;;;21.70;91.10;;;;;;5073864;28;20339;-68
2023/09/09 07:25:25;;;;;;;;;;;21.70;91.10;;;;;;5073707;28;19905;-68
2023/09/09 07:27:51;;;;;;;;;;;21.70;91.10;;;;;;5075513;28;19920;-62
2023/09/09 07:30:18;;;;;;;;;;;21.70;91.10;;;;;;5064283;28;19912;-68
2023/09/09 07:32:43;;;;;;;;;;;21.70;91.10;;;;;;5061841;28;20340;-68
2023/09/09 07:35:09;;;;;;;;;;;21.70;91.10;;;;;;5073539;28;19915;-68
2023/09/09 07:37:34;;;;;;;;;;;21.70;91.10;;;;;;5073196;28;19908;-67
2023/09/09 07:40:00;;;;;;;;;;;21.70;91.10;;;;;;5072194;28;19967;-67
2023/09/09 07:42:25;;;;;;;;;;;21.70;91.10;;;;;;5073375;28;19919;-68
2023/09/09 07:44:51;;;;;;;;;;;21.70;91.10;;;;;;5073237;28;20363;-68
2023/09/09 07:47:17;;;;;;;;;;;21.70;91.10;;;;;;5065953;28;20020;-67
2023/09/09 07:49:43;;;;;;;;;;;21.70;91.10;;;;;;5053167;28;19909;-68
2023/09/09 07:52:08;;;;;;;;;;;21.70;91.10;;;;;;5069496;28;19979;-67
2023/09/09 07:54:34;;;;;;;;;;;21.70;91.10;;;;;;5073000;28;19915;-63
2023/09/09 07:56:59;;;;;;;;;;;21.70;91.10;;;;;;5069813;28;19986;-66
2023/09/09 07:59:25;;;;;;;;;;;21.70;91.10;;;;;;5053004;28;19916;-68
2023/09/09 08:01:50;;;;;;;;;;;21.70;91.10;;;;;;5053115;28;20385;-68
2023/09/09 08:04:16;;;;;;;;;;;21.70;91.10;;;;;;5035852;28;19916;-68
2023/09/09 08:06:41;;;;;;;;;;;21.70;91.10;;;;;;5053191;28;19987;-68
2023/09/09 08:09:07;;;;;;;;;;;21.70;91.10;;;;;;5052929;28;19909;-67
2023/09/09 08:11:32;;;;;;;;;;;21.70;91.10;;;;;;5053134;28;19909;-67
2023/09/09 08:13:58;;;;;;;;;;;21.70;91.10;;;;;;5035314;28;19909;-69
2023/09/09 08:16:23;;;;;;;;;;;21.70;91.10;;;;;;5051026;28;19908;-68
2023/09/09 08:18:49;;;;;;;;;;;21.70;91.20;;;;;;5054247;28;19949;-69
2023/09/09 08:21:14;;;;;;;;;;;21.70;91.20;;;;;;5066613;28;19912;-68
2023/09/09 08:23:40;;;;;;;;;;;21.70;91.20;;;;;;5065727;28;20019;-69
2023/09/09 08:26:05;;;;;;;;;;;21.70;91.20;;;;;;5057094;28;20344;-68
2023/09/09 08:28:31;;;;;;;;;;;21.70;91.20;;;;;;5056352;28;19913;-68
2023/09/09 08:31:00;;;;;;;;;;;21.70;91.20;;;;;;5056353;28;20276;-69
2023/09/09 08:33:25;;;;;;;;;;;21.70;91.20;;;;;;5056472;28;19909;-69
2023/09/09 08:35:51;;;;;;;;;;;21.70;91.20;;;;;;5056658;28;19913;-69
2023/09/09 08:38:17;;;;;;;;;;;21.70;91.20;;;;;;5054638;28;19912;-68
2023/09/09 08:40:53;;;;;;;;;;;21.70;91.20;;;;;;5061669;28;19923;-67
2023/09/09 08:43:21;;;;;;;;;;;21.70;91.20;;;;;;5060467;28;19929;-68
2023/09/09 08:46:02;;;;;;;;;;;21.70;91.10;;;;;;5056345;28;19909;-68
2023/09/09 08:48:32;;;;;;;;;;;21.70;91.40;;;;;;5056741;28;20424;-67
2023/09/09 08:50:59;;;;;;;;;;;21.70;91.10;;;;;;5076237;28;19999;-68
2023/09/09 08:53:25;;;;;;;;;;;21.70;91.10;;;;;;5072416;28;19944;-66
2023/09/09 08:55:52;;;;;;;;;;;21.70;91.10;;;;;;5037602;28;19921;-65
2023/09/09 08:58:17;;;;;;;;;;;21.70;91.10;;;;;;5054965;28;19912;-67
2023/09/09 09:00:43;;;;;;;;;;;21.70;91.10;;;;;;5056389;28;20359;-66
2023/09/09 09:03:09;;;;;;;;;;;21.70;91.10;;;;;;5055758;28;19952;-67
2023/09/09 09:05:36;;;;;;;;;;;21.70;91.10;;;;;;5056980;28;19919;-67
2023/09/09 09:08:02;;;;;;;;;;;21.70;91.10;;;;;;5072631;28;19959;-66
2023/09/09 09:10:27;;;;;;;;;;;21.70;91.10;;;;;;5058748;28;19913;-65
2023/09/09 09:12:53;;;;;;;;;;;21.70;91.10;;;;;;5053561;28;19912;-65
2023/09/09 09:15:20;;;;;;;;;;;21.70;91.10;;;;;;5054655;28;19954;-60
2023/09/09 09:17:46;;;;;;;;;;;21.70;91.10;;;;;;5045723;28;19912;-67
2023/09/09 09:20:24;;;;;;;;;;;21.70;91.00;;;;;;5070805;28;19920;-67
2023/09/09 09:22:50;;;;;;;;;;;21.70;91.00;;;;;;5054977;28;19925;-69
2023/09/09 09:25:19;;;;;;;;;;;21.70;91.00;;;;;;5054521;28;20268;-68
2023/09/09 09:27:44;;;;;;;;;;;21.70;91.10;;;;;;5055437;28;20269;-68
2023/09/09 09:30:11;;;;;;;;;;;21.70;91.00;;;;;;5062599;28;19917;-67
2023/09/09 09:32:40;;;;;;;;;;;21.70;91.00;;;;;;5057525;28;19908;-67
2023/09/09 09:35:06;;;;;;;;;;;21.70;91.00;;;;;;5072130;28;19912;-66
2023/09/09 09:37:32;;;;;;;;;;;21.70;91.00;;;;;;5042221;28;19919;-65
2023/09/09 09:39:57;;;;;;;;;;;21.70;91.00;;;;;;5055366;28;19979;-67
2023/09/09 09:42:23;;;;;;;;;;;21.70;91.00;;;;;;5054331;28;20368;-68
2023/09/09 09:44:48;;;;;;;;;;;21.70;91.00;;;;;;5067573;28;20008;-68
2023/09/09 09:47:15;;;;;;;;;;;21.70;91.00;;;;;;5074819;28;19928;-68
2023/09/09 09:49:48;;;;;;;;;;;21.70;91.00;;;;;;5071088;28;19916;-68
2023/09/09 09:52:24;;;;;;;;;;;21.70;91.00;;;;;;5072975;28;19990;-69
2023/09/09 09:54:53;;;;;;;;;;;21.70;91.00;;;;;;5075142;28;19913;-67
2023/09/09 09:57:20;;;;;;;;;;;21.70;91.00;;;;;;5056359;28;20372;-67
2023/09/09 09:59:46;;;;;;;;;;;21.70;91.00;;;;;;5051878;28;20003;-66
2023/09/09 10:02:11;;;;;;;;;;;21.70;91.00;;;;;;5056085;28;20393;-65
2023/09/09 10:04:40;;;;;;;;;;;21.70;91.00;;;;;;5062880;28;19913;-66
2023/09/09 10:07:09;;;;;;;;;;;21.70;91.00;;;;;;5053337;28;19920;-67
2023/09/09 10:09:55;;;;;;;;;;;21.70;91.00;;;;;;5054419;28;20003;-67
2023/09/09 10:12:32;;;;;;;;;;;21.70;91.00;;;;;;5054037;28;19917;-67
2023/09/09 10:14:59;;;;;;;;;;;21.70;91.00;;;;;;5036630;28;20260;-67
2023/09/09 10:17:25;;;;;;;;;;;21.70;91.00;;;;;;5052358;28;19913;-68
2023/09/09 10:19:53;;;;;;;;;;;21.70;91.00;;;;;;5060614;28;19916;-68
2023/09/09 10:22:19;;;;;;;;;;;21.70;91.00;;;;;;5074478;28;20359;-68
2023/09/09 10:24:46;;;;;;;;;;;21.70;91.10;;;;;;5058191;28;19958;-68
2023/09/09 10:27:11;;;;;;;;;;;21.70;91.10;;;;;;5053891;28;20009;-67
2023/09/09 10:29:37;;;;;;;;;;;21.70;91.10;;;;;;5054370;28;19913;-67
2023/09/09 10:32:04;;;;;;;;;;;21.70;91.10;;;;;;5054300;28;19916;-68
2023/09/09 10:34:32;;;;;;;;;;;21.70;91.10;;;;;;5052705;28;19920;-68
2023/09/09 10:36:59;;;;;;;;;;;21.70;91.10;;;;;;5070419;28;19923;-69
2023/09/09 10:39:25;;;;;;;;;;;21.70;91.10;;;;;;5073739;28;19909;-68
2023/09/09 10:41:50;;;;;;;;;;;21.70;91.20;;;;;;5073360;28;19927;-68
2023/09/09 10:44:16;;;;;;;;;;;21.70;91.20;;;;;;5074018;28;19944;-69
2023/09/09 10:46:41;;;;;;;;;;;21.70;91.20;;;;;;5073827;28;19950;-69
2023/09/09 10:49:07;;;;;;;;;;;21.70;91.20;;;;;;5074166;28;19947;-68
2023/09/09 10:51:49;;;;;;;;;;;21.70;91.20;;;;;;5073702;28;19908;-69
2023/09/09 10:54:17;;;;;;;;;;;21.70;91.20;;;;;;5073767;28;20370;-68
2023/09/09 10:56:49;;;;;;;;;;;21.70;91.20;;;;;;5073846;28;19908;-69
2023/09/09 10:59:16;;;;;;;;;;;21.70;91.20;;;;;;5055860;28;19908;-69
2023/09/09 11:01:42;;;;;;;;;;;21.70;91.20;;;;;;5073583;28;19916;-70
2023/09/09 11:04:17;;;;;;;;;;;21.70;91.10;;;;;;5065250;28;20352;-67
2023/09/09 11:06:57;;;;;;;;;;;21.70;91.10;;;;;;5051607;28;20374;-67
2023/09/09 11:09:27;;;;;;;;;;;21.70;91.10;;;;;;5064562;28;19958;-67
2023/09/09 11:11:54;;;;;;;;;;;21.70;91.10;;;;;;5073233;28;20012;-66
2023/09/09 11:14:20;;;;;;;;;;;21.70;91.10;;;;;;5073237;28;20304;-69
2023/09/09 11:16:48;;;;;;;;;;;21.70;91.10;;;;;;5067792;28;19913;-69
2023/09/09 11:19:16;;;;;;;;;;;21.70;91.10;;;;;;5034035;28;20275;-60
2023/09/09 11:21:45;;;;;;;;;;;21.70;91.10;;;;;;5054893;28;19928;-66
2023/09/09 11:24:11;;;;;;;;;;;21.70;91.10;;;;;;5053166;28;19917;-66
2023/09/09 11:26:38;;;;;;;;;;;21.70;91.10;;;;;;5055885;28;19912;-67
2023/09/09 11:29:04;;;;;;;;;;;21.70;91.10;;;;;;5055939;28;19917;-67
2023/09/09 11:31:30;;;;;;;;;;;21.70;91.10;;;;;;5035652;28;19917;-67
2023/09/09 11:33:56;;;;;;;;;;;21.70;91.10;;;;;;5053426;28;19951;-67
2023/09/09 11:36:22;;;;;;;;;;;21.70;91.10;;;;;;5053082;28;20299;-67
2023/09/09 11:38:47;;;;;;;;;;;21.70;91.10;;;;;;5062506;28;20000;-68
2023/09/09 11:41:23;;;;;;;;;;;21.70;91.10;;;;;;5059749;28;20260;-67
2023/09/09 11:44:02;;;;;;;;;;;21.70;91.10;;;;;;5053771;28;19920;-68
2023/09/09 11:46:30;;;;;;;;;;;21.70;91.20;;;;;;5068261;28;19909;-68
2023/09/09 11:48:56;;;;;;;;;;;21.70;91.20;;;;;;5053152;28;19992;-68
2023/09/09 11:51:21;;;;;;;;;;;21.70;91.20;;;;;;5052906;28;20394;-67
2023/09/09 11:53:47;;;;;;;;;;;21.70;91.20;;;;;;5053225;28;20374;-67
2023/09/09 11:56:14;;;;;;;;;;;21.70;91.20;;;;;;5057264;28;19989;-67
2023/09/09 11:58:42;;;;;;;;;;;21.70;91.20;;;;;;5059431;28;19918;-66
2023/09/09 12:01:10;;;;;;;;;;;21.70;91.20;;;;;;5077002;28;20010;-66
2023/09/09 12:03:36;;;;;;;;;;;21.70;91.20;;;;;;5074944;28;19916;-67
2023/09/09 12:06:02;;;;;;;;;;;21.70;91.20;;;;;;5073673;28;21476;-67
2023/09/09 12:08:27;;;;;;;;;;;21.70;91.10;;;;;;5061267;28;20368;-66
2023/09/09 12:10:54;;;;;;;;;;;21.70;91.10;;;;;;5060408;28;19917;-66
2023/09/09 12:13:20;;;;;;;;;;;21.70;91.20;;;;;;5054457;28;19909;-67
2023/09/09 12:15:47;;;;;;;;;;;21.70;91.20;;;;;;5056830;28;19909;-66
2023/09/09 12:18:13;;;;;;;;;;;21.70;91.20;;;;;;5057978;28;19909;-66
2023/09/09 12:20:57;;;;;;;;;;;21.70;91.20;;;;;;5076871;28;20339;-65
2023/09/09 12:23:29;;;;;;;;;;;21.70;91.20;;;;;;5076788;28;19913;-65
2023/09/09 12:25:55;;;;;;;;;;;21.70;91.30;;;;;;5076725;28;19915;-66
2023/09/09 12:28:20;;;;;;;;;;;21.70;91.30;;;;;;5072687;28;19917;-66
2023/09/09 12:30:46;;;;;;;;;;;21.70;91.30;;;;;;5056048;28;20310;-67
2023/09/09 12:33:12;;;;;;;;;;;21.70;91.30;;;;;;5038904;28;19915;-65
2023/09/09 12:35:41;;;;;;;;;;;21.70;91.30;;;;;;5061216;28;19909;-65
2023/09/09 12:38:07;;;;;;;;;;;21.70;91.30;;;;;;5075106;28;19923;-65
2023/09/09 12:40:47;;;;;;;;;;;21.70;91.30;;;;;;5062315;28;19917;-66
2023/09/09 12:43:13;;;;;;;;;;;21.70;91.30;;;;;;5076145;28;19912;-67
2023/09/09 12:45:49;;;;;;;;;;;21.70;91.30;;;;;;5064044;28;20016;-67
2023/09/09 12:48:14;;;;;;;;;;;21.70;91.30;;;;;;5054566;28;19937;-65
2023/09/09 12:50:40;;;;;;;;;;;21.70;91.30;;;;;;5056252;28;20225;-67
2023/09/09 12:53:05;;;;;;;;;;;21.80;91.30;;;;;;5056311;28;19909;-67
2023/09/09 12:55:31;;;;;;;;;;;21.70;91.30;;;;;;5055863;28;19919;-66
2023/09/09 12:57:57;;;;;;;;;;;21.80;91.40;;;;;;5056412;28;19913;-67
2023/09/09 13:00:22;;;;;;;;;;;21.70;91.30;;;;;;5054466;28;19917;-67
2023/09/09 13:02:48;;;;;;;;;;;21.70;91.30;;;;;;5049085;28;19916;-67
2023/09/09 13:05:14;;;;;;;;;;;21.70;91.40;;;;;;5073537;28;20331;-66
2023/09/09 13:07:40;;;;;;;;;;;21.70;91.40;;;;;;5076094;28;19931;-67
2023/09/09 13:10:05;;;;;;;;;;;21.70;91.30;;;;;;5073165;28;20410;-67
2023/09/09 13:12:31;;;;;;;;;;;21.70;91.40;;;;;;5075659;28;20363;-67
2023/09/09 13:14:58;;;;;;;;;;;21.80;91.40;;;;;;5061594;28;19917;-67
2023/09/09 13:17:23;;;;;;;;;;;21.80;91.40;;;;;;5055314;28;19919;-67
2023/09/09 13:19:49;;;;;;;;;;;21.80;91.40;;;;;;5055268;28;19912;-67
2023/09/09 13:22:14;;;;;;;;;;;21.80;91.40;;;;;;5055477;28;19959;-67
2023/09/09 13:24:40;;;;;;;;;;;21.70;91.40;;;;;;5064356;28;19908;-66
2023/09/09 13:27:05;;;;;;;;;;;21.80;91.40;;;;;;5075268;28;19951;-67
2023/09/09 13:29:31;;;;;;;;;;;21.70;91.40;;;;;;5075605;28;19913;-66
2023/09/09 13:31:56;;;;;;;;;;;21.70;91.70;;;;;;5075454;28;20347;-66
2023/09/09 13:34:21;;;;;;;;;;;21.70;91.40;;;;;;5066790;28;19916;-66
2023/09/09 13:36:47;;;;;;;;;;;21.80;91.40;;;;;;5055067;28;20011;-65
2023/09/09 13:39:13;;;;;;;;;;;21.80;91.40;;;;;;5054167;28;19909;-65
2023/09/09 13:41:38;;;;;;;;;;;21.80;91.40;;;;;;5066705;28;19960;-59
2023/09/09 13:44:04;;;;;;;;;;;21.80;91.40;;;;;;5036420;28;19959;-66
2023/09/09 13:46:29;;;;;;;;;;;21.80;91.40;;;;;;5045704;28;20389;-65
2023/09/09 13:48:54;;;;;;;;;;;21.80;91.40;;;;;;5074204;28;19912;-66
2023/09/09 13:51:20;;;;;;;;;;;21.80;91.50;;;;;;5068342;28;20569;-66
2023/09/09 13:53:46;;;;;;;;;;;21.80;91.50;;;;;;5068002;28;19991;-65
2023/09/09 13:56:12;;;;;;;;;;;21.80;91.40;;;;;;5074704;28;20085;-65
2023/09/09 13:58:38;;;;;;;;;;;21.80;91.50;;;;;;5074892;28;20461;-66
2023/09/09 14:01:04;;;;;;;;;;;21.80;91.50;;;;;;5074257;28;20011;-61
2023/09/09 14:03:29;;;;;;;;;;;21.80;91.50;;;;;;5054521;28;19929;-66
2023/09/09 14:05:58;;;;;;;;;;;21.80;91.50;;;;;;5053845;28;19935;-66
2023/09/09 14:08:23;;;;;;;;;;;21.80;91.50;;;;;;5054349;28;20326;-67
2023/09/09 14:10:49;;;;;;;;;;;21.80;91.50;;;;;;5054707;28;19916;-67